sensor_id;sensor_type;location;lat;lon;timestamp;pressure;altitude;pressure_sealevel;temperature;humidity
51715;BME280;39115;59.332;18.034;2023-12-20T00:00:56;99274.38;;;2.62;65.43
51715;BME280;39115;59.332;18.034;2023-12-20T00:03:16;99279.63;;;2.62;65.34
51715;BME280;39115;59.332;18.034;2023-12-20T00:05:37;99280.56;;;2.61;65.29
51715;BME280;39115;59.332;18.034;2023-12-20T00:08:01;99276.28;;;2.60;65.52
51715;BME280;39115;59.332;18.034;2023-12-20T00:10:21;99271.16;;;2.59;65.44
51715;BME280;39115;59.332;18.034;2023-12-20T00:12:42;99269.47;;;2.58;65.29
51715;BME280;39115;59.332;18.034;2023-12-20T00:15:02;99266.00;;;2.57;65.18
51715;BME280;39115;59.332;18.034;2023-12-20T00:17:23;99271.38;;;2.56;65.49
51715;BME280;39115;59.332;18.034;2023-12-20T00:19:43;99275.81;;;2.55;65.38
51715;BME280;39115;59.332;18.034;2023-12-20T00:22:04;99268.03;;;2.53;65.41
51715;BME280;39115;59.332;18.034;2023-12-20T00:24:24;99273.41;;;2.52;65.13
51715;BME280;39115;59.332;18.034;2023-12-20T00:26:45;99263.84;;;2.51;65.20
51715;BME280;39115;59.332;18.034;2023-12-20T00:29:05;99270.91;;;2.50;65.19
51715;BME280;39115;59.332;18.034;2023-12-20T00:31:26;99263.84;;;2.51;65.21
51715;BME280;39115;59.332;18.034;2023-12-20T00:33:47;99264.94;;;2.48;65.46
51715;BME280;39115;59.332;18.034;2023-12-20T00:36:07;99263.25;;;2.47;65.32
51715;BME280;39115;59.332;18.034;2023-12-20T00:38:28;99266.00;;;2.46;65.21
51715;BME280;39115;59.332;18.034;2023-12-20T00:40:49;99265.16;;;2.45;65.31
51715;BME280;39115;59.332;18.034;2023-12-20T00:43:10;99269.59;;;2.45;65.27
51715;BME280;39115;59.332;18.034;2023-12-20T00:45:30;99271.38;;;2.44;65.31
51715;BME280;39115;59.332;18.034;2023-12-20T00:47:51;99260.16;;;2.42;65.37
51715;BME280;39115;59.332;18.034;2023-12-20T00:50:11;99265.53;;;2.41;65.39
51715;BME280;39115;59.332;18.034;2023-12-20T00:52:32;99262.06;;;2.40;65.22
51715;BME280;39115;59.332;18.034;2023-12-20T00:54:52;99255.13;;;2.39;65.42
51715;BME280;39115;59.332;18.034;2023-12-20T00:57:13;99270.06;;;2.39;65.41
51715;BME280;39115;59.332;18.034;2023-12-20T00:59:33;99264.94;;;2.37;65.45
51715;BME280;39115;59.332;18.034;2023-12-20T01:01:54;99267.56;;;2.37;65.16
51715;BME280;39115;59.332;18.034;2023-12-20T01:04:14;99260.72;;;2.34;65.22
51715;BME280;39115;59.332;18.034;2023-12-20T01:06:35;99256.44;;;2.33;65.25
51715;BME280;39115;59.332;18.034;2023-12-20T01:08:56;99266.13;;;2.33;65.41
51715;BME280;39115;59.332;18.034;2023-12-20T01:11:17;99257.50;;;2.31;65.16
51715;BME280;39115;59.332;18.034;2023-12-20T01:13:37;99262.75;;;2.31;65.26
51715;BME280;39115;59.332;18.034;2023-12-20T01:15:57;99269.81;;;2.30;65.10
51715;BME280;39115;59.332;18.034;2023-12-20T01:18:18;99269.09;;;2.28;65.23
51715;BME280;39115;59.332;18.034;2023-12-20T01:20:38;99270.03;;;2.27;65.40
51715;BME280;39115;59.332;18.034;2023-12-20T01:22:59;99265.72;;;2.26;65.27
51715;BME280;39115;59.332;18.034;2023-12-20T01:25:19;99271.00;;;2.26;65.20
51715;BME280;39115;59.332;18.034;2023-12-20T01:27:40;99270.28;;;2.24;64.95
51715;BME280;39115;59.332;18.034;2023-12-20T01:30:00;99274.69;;;2.24;64.99
51715;BME280;39115;59.332;18.034;2023-12-20T01:32:21;99271.38;;;2.21;65.25
51715;BME280;39115;59.332;18.034;2023-12-20T01:34:41;99270.50;;;2.21;65.07
51715;BME280;39115;59.332;18.034;2023-12-20T01:37:02;99268.84;;;2.20;65.38
51715;BME280;39115;59.332;18.034;2023-12-20T01:39:23;99259.28;;;2.19;65.35
51715;BME280;39115;59.332;18.034;2023-12-20T01:41:43;99261.09;;;2.18;65.36
51715;BME280;39115;59.332;18.034;2023-12-20T01:44:04;99253.44;;;2.15;65.37
51715;BME280;39115;59.332;18.034;2023-12-20T01:46:25;99245.69;;;2.14;65.27
51715;BME280;39115;59.332;18.034;2023-12-20T01:48:47;99254.50;;;2.13;65.30
51715;BME280;39115;59.332;18.034;2023-12-20T01:51:08;99253.69;;;2.12;65.12
51715;BME280;39115;59.332;18.034;2023-12-20T01:53:29;99252.81;;;2.12;65.31
51715;BME280;39115;59.332;18.034;2023-12-20T01:55:52;99239.84;;;2.10;65.17
51715;BME280;39115;59.332;18.034;2023-12-20T01:58:14;99242.47;;;2.10;65.22
51715;BME280;39115;59.332;18.034;2023-12-20T02:00:36;99239.09;;;2.08;65.17
51715;BME280;39115;59.332;18.034;2023-12-20T02:03:00;99239.09;;;2.08;65.09
51715;BME280;39115;59.332;18.034;2023-12-20T02:05:22;99243.53;;;2.08;65.12
51715;BME280;39115;59.332;18.034;2023-12-20T02:07:42;99234.09;;;2.05;65.23
51715;BME280;39115;59.332;18.034;2023-12-20T02:10:03;99236.81;;;2.03;65.26
51715;BME280;39115;59.332;18.034;2023-12-20T02:12:27;99231.69;;;2.02;65.23
51715;BME280;39115;59.332;18.034;2023-12-20T02:14:48;99229.19;;;2.00;65.19
51715;BME280;39115;59.332;18.034;2023-12-20T02:17:09;99230.16;;;1.99;65.13
51715;BME280;39115;59.332;18.034;2023-12-20T02:19:29;99228.47;;;1.98;65.32
51715;BME280;39115;59.332;18.034;2023-12-20T02:21:50;99231.09;;;1.98;65.31
51715;BME280;39115;59.332;18.034;2023-12-20T02:24:24;99222.50;;;1.96;65.30
51715;BME280;39115;59.332;18.034;2023-12-20T02:26:45;99224.31;;;1.96;65.38
51715;BME280;39115;59.332;18.034;2023-12-20T02:29:06;99224.31;;;1.96;65.14
51715;BME280;39115;59.332;18.034;2023-12-20T02:31:27;99215.69;;;1.94;65.15
51715;BME280;39115;59.332;18.034;2023-12-20T02:33:47;99224.44;;;1.94;65.17
51715;BME280;39115;59.332;18.034;2023-12-20T02:36:08;99214.97;;;1.92;65.26
51715;BME280;39115;59.332;18.034;2023-12-20T02:38:28;99212.34;;;1.92;65.18
51715;BME280;39115;59.332;18.034;2023-12-20T02:40:49;99210.66;;;1.90;65.20
51715;BME280;39115;59.332;18.034;2023-12-20T02:43:09;99208.03;;;1.90;65.22
51715;BME280;39115;59.332;18.034;2023-12-20T02:45:30;99211.66;;;1.89;65.00
51715;BME280;39115;59.332;18.034;2023-12-20T02:47:50;99209.97;;;1.88;65.25
51715;BME280;39115;59.332;18.034;2023-12-20T02:50:11;99203.06;;;1.87;65.32
51715;BME280;39115;59.332;18.034;2023-12-20T02:52:31;99206.63;;;1.86;64.90
51715;BME280;39115;59.332;18.034;2023-12-20T02:54:52;99204.94;;;1.85;65.13
51715;BME280;39115;59.332;18.034;2023-12-20T02:57:13;99206.63;;;1.86;65.15
51715;BME280;39115;59.332;18.034;2023-12-20T02:59:33;99198.88;;;1.85;65.02
51715;BME280;39115;59.332;18.034;2023-12-20T03:01:53;99197.19;;;1.84;65.03
51715;BME280;39115;59.332;18.034;2023-12-20T03:04:14;99193.72;;;1.83;65.02
51715;BME280;39115;59.332;18.034;2023-12-20T03:06:35;99192.91;;;1.83;65.07
51715;BME280;39115;59.332;18.034;2023-12-20T03:08:55;99198.28;;;1.81;64.99
51715;BME280;39115;59.332;18.034;2023-12-20T03:11:16;99195.66;;;1.81;65.21
51715;BME280;39115;59.332;18.034;2023-12-20T03:13:36;99200.03;;;1.81;65.03
51715;BME280;39115;59.332;18.034;2023-12-20T03:15:57;99200.03;;;1.81;65.42
51715;BME280;39115;59.332;18.034;2023-12-20T03:18:18;99192.31;;;1.79;64.96
51715;BME280;39115;59.332;18.034;2023-12-20T03:20:38;99187.06;;;1.79;65.11
51715;BME280;39115;59.332;18.034;2023-12-20T03:22:59;99188.00;;;1.78;64.90
51715;BME280;39115;59.332;18.034;2023-12-20T03:25:19;99191.47;;;1.79;65.20
51715;BME280;39115;59.332;18.034;2023-12-20T03:27:40;99181.94;;;1.78;65.07
51715;BME280;39115;59.332;18.034;2023-12-20T03:30:01;99175.00;;;1.77;65.03
51715;BME280;39115;59.332;18.034;2023-12-20T03:32:21;99178.56;;;1.76;65.14
51715;BME280;39115;59.332;18.034;2023-12-20T03:34:41;99168.91;;;1.76;65.11
51715;BME280;39115;59.332;18.034;2023-12-20T03:37:02;99161.97;;;1.75;65.19
51715;BME280;39115;59.332;18.034;2023-12-20T03:39:23;99161.97;;;1.75;65.11
51715;BME280;39115;59.332;18.034;2023-12-20T03:41:43;99161.97;;;1.75;64.80
51715;BME280;39115;59.332;18.034;2023-12-20T03:44:04;99147.22;;;1.74;65.34
51715;BME280;39115;59.332;18.034;2023-12-20T03:46:24;99150.78;;;1.73;65.08
51715;BME280;39115;59.332;18.034;2023-12-20T03:48:45;99145.53;;;1.73;64.81
51715;BME280;39115;59.332;18.034;2023-12-20T03:51:06;99141.25;;;1.72;65.02
51715;BME280;39115;59.332;18.034;2023-12-20T03:53:26;99138.63;;;1.72;65.39
51715;BME280;39115;59.332;18.034;2023-12-20T03:55:47;99138.63;;;1.72;65.19
51715;BME280;39115;59.332;18.034;2023-12-20T03:58:07;99153.50;;;1.71;65.10
51715;BME280;39115;59.332;18.034;2023-12-20T04:00:28;99157.13;;;1.70;64.94
51715;BME280;39115;59.332;18.034;2023-12-20T04:02:48;99154.50;;;1.70;65.37
51715;BME280;39115;59.332;18.034;2023-12-20T04:05:09;99164.97;;;1.70;65.07
51715;BME280;39115;59.332;18.034;2023-12-20T04:07:30;99163.19;;;1.71;64.87
51715;BME280;39115;59.332;18.034;2023-12-20T04:09:50;99158.88;;;1.70;65.01
51715;BME280;39115;59.332;18.034;2023-12-20T04:12:11;99158.88;;;1.70;64.94
51715;BME280;39115;59.332;18.034;2023-12-20T04:14:31;99163.31;;;1.69;64.82
51715;BME280;39115;59.332;18.034;2023-12-20T04:16:52;99168.56;;;1.69;64.84
51715;BME280;39115;59.332;18.034;2023-12-20T04:19:13;99158.06;;;1.69;65.11
51715;BME280;39115;59.332;18.034;2023-12-20T04:21:33;99162.47;;;1.69;64.93
51715;BME280;39115;59.332;18.034;2023-12-20T04:23:54;99166.88;;;1.68;65.05
51715;BME280;39115;59.332;18.034;2023-12-20T04:26:14;99164.25;;;1.68;65.11
51715;BME280;39115;59.332;18.034;2023-12-20T04:28:35;99156.38;;;1.68;64.99
51715;BME280;39115;59.332;18.034;2023-12-20T04:30:56;99164.25;;;1.68;64.82
51715;BME280;39115;59.332;18.034;2023-12-20T04:33:16;99154.72;;;1.67;65.07
51715;BME280;39115;59.332;18.034;2023-12-20T04:35:37;99166.03;;;1.68;64.75
51715;BME280;39115;59.332;18.034;2023-12-20T04:37:57;99153.88;;;1.67;64.89
51715;BME280;39115;59.332;18.034;2023-12-20T04:40:18;99163.41;;;1.68;64.85
51715;BME280;39115;59.332;18.034;2023-12-20T04:42:38;99155.53;;;1.68;65.29
51715;BME280;39115;59.332;18.034;2023-12-20T04:44:59;99152.09;;;1.67;65.14
51715;BME280;39115;59.332;18.034;2023-12-20T04:47:20;99149.47;;;1.67;65.11
51715;BME280;39115;59.332;18.034;2023-12-20T04:49:40;99140.78;;;1.67;64.85
51715;BME280;39115;59.332;18.034;2023-12-20T04:52:01;99138.16;;;1.67;65.09
51715;BME280;39115;59.332;18.034;2023-12-20T04:54:21;99135.53;;;1.67;64.94
51715;BME280;39115;59.332;18.034;2023-12-20T04:56:42;99133.84;;;1.66;64.93
51715;BME280;39115;59.332;18.034;2023-12-20T04:59:02;99133.00;;;1.65;65.14
51715;BME280;39115;59.332;18.034;2023-12-20T05:01:23;99125.97;;;1.66;64.93
51715;BME280;39115;59.332;18.034;2023-12-20T05:03:44;99123.34;;;1.66;64.95
51715;BME280;39115;59.332;18.034;2023-12-20T05:06:04;99116.31;;;1.66;65.15
51715;BME280;39115;59.332;18.034;2023-12-20T05:08:25;99109.38;;;1.65;64.70
51715;BME280;39115;59.332;18.034;2023-12-20T05:10:45;99101.53;;;1.65;64.98
51715;BME280;39115;59.332;18.034;2023-12-20T05:13:06;99105.81;;;1.66;64.69
51715;BME280;39115;59.332;18.034;2023-12-20T05:15:26;99091.88;;;1.66;64.99
51715;BME280;39115;59.332;18.034;2023-12-20T05:17:47;99104.13;;;1.65;64.86
51715;BME280;39115;59.332;18.034;2023-12-20T05:20:08;99100.69;;;1.65;65.05
51715;BME280;39115;59.332;18.034;2023-12-20T05:22:28;99101.53;;;1.65;64.98
51715;BME280;39115;59.332;18.034;2023-12-20T05:24:49;99102.38;;;1.66;64.89
51715;BME280;39115;59.332;18.034;2023-12-20T05:27:09;99105.00;;;1.66;64.97
51715;BME280;39115;59.332;18.034;2023-12-20T05:29:30;99098.91;;;1.65;64.76
51715;BME280;39115;59.332;18.034;2023-12-20T05:31:50;99094.50;;;1.66;65.09
51715;BME280;39115;59.332;18.034;2023-12-20T05:34:11;99100.69;;;1.65;64.87
51715;BME280;39115;59.332;18.034;2023-12-20T05:36:31;99098.91;;;1.65;64.76
51715;BME280;39115;59.332;18.034;2023-12-20T05:38:52;99092.81;;;1.65;64.99
51715;BME280;39115;59.332;18.034;2023-12-20T05:41:13;99093.78;;;1.64;64.87
51715;BME280;39115;59.332;18.034;2023-12-20T05:43:34;99096.41;;;1.64;64.92
51715;BME280;39115;59.332;18.034;2023-12-20T05:45:54;99091.16;;;1.64;64.75
51715;BME280;39115;59.332;18.034;2023-12-20T05:48:14;99071.84;;;1.65;64.94
51715;BME280;39115;59.332;18.034;2023-12-20T05:50:35;99066.59;;;1.65;65.05
51715;BME280;39115;59.332;18.034;2023-12-20T05:52:56;99059.69;;;1.64;65.04
51715;BME280;39115;59.332;18.034;2023-12-20T05:55:17;99062.16;;;1.65;64.99
51715;BME280;39115;59.332;18.034;2023-12-20T05:57:38;99060.50;;;1.64;64.97
51715;BME280;39115;59.332;18.034;2023-12-20T05:59:58;99063.13;;;1.64;64.77
51715;BME280;39115;59.332;18.034;2023-12-20T06:02:19;99065.66;;;1.66;64.95
51715;BME280;39115;59.332;18.034;2023-12-20T06:04:42;99058.72;;;1.65;65.03
51715;BME280;39115;59.332;18.034;2023-12-20T06:07:03;99057.88;;;1.64;64.89
51715;BME280;39115;59.332;18.034;2023-12-20T06:09:23;99053.47;;;1.65;64.85
51715;BME280;39115;59.332;18.034;2023-12-20T06:11:44;99054.44;;;1.64;65.06
51715;BME280;39115;59.332;18.034;2023-12-20T06:14:04;99057.88;;;1.64;64.77
51715;BME280;39115;59.332;18.034;2023-12-20T06:16:25;99061.34;;;1.65;65.05
51715;BME280;39115;59.332;18.034;2023-12-20T06:18:46;99055.25;;;1.64;64.97
51715;BME280;39115;59.332;18.034;2023-12-20T06:21:07;99052.63;;;1.64;64.90
51715;BME280;39115;59.332;18.034;2023-12-20T06:23:28;99050.84;;;1.65;65.25
51715;BME280;39115;59.332;18.034;2023-12-20T06:25:49;99043.81;;;1.65;64.90
51715;BME280;39115;59.332;18.034;2023-12-20T06:28:09;99033.44;;;1.64;65.08
51715;BME280;39115;59.332;18.034;2023-12-20T06:30:30;99028.06;;;1.65;64.95
51715;BME280;39115;59.332;18.034;2023-12-20T06:32:54;99019.38;;;1.65;65.19
51715;BME280;39115;59.332;18.034;2023-12-20T06:35:15;99013.28;;;1.64;65.14
51715;BME280;39115;59.332;18.034;2023-12-20T06:37:36;99013.28;;;1.64;65.12
51715;BME280;39115;59.332;18.034;2023-12-20T06:39:56;99013.28;;;1.64;64.99
51715;BME280;39115;59.332;18.034;2023-12-20T06:42:17;99011.50;;;1.65;64.96
51715;BME280;39115;59.332;18.034;2023-12-20T06:44:37;99018.53;;;1.64;64.91
51715;BME280;39115;59.332;18.034;2023-12-20T06:46:59;99015.91;;;1.64;65.01
51715;BME280;39115;59.332;18.034;2023-12-20T06:49:19;99017.56;;;1.65;64.82
51715;BME280;39115;59.332;18.034;2023-12-20T06:51:40;99028.06;;;1.65;64.87
51715;BME280;39115;59.332;18.034;2023-12-20T06:54:00;99019.38;;;1.65;64.97
51715;BME280;39115;59.332;18.034;2023-12-20T06:56:23;99016.75;;;1.65;65.11
51715;BME280;39115;59.332;18.034;2023-12-20T06:58:44;99020.19;;;1.65;65.25
51715;BME280;39115;59.332;18.034;2023-12-20T07:01:05;99014.13;;;1.65;64.85
51715;BME280;39115;59.332;18.034;2023-12-20T07:03:26;99015.91;;;1.64;64.67
51715;BME280;39115;59.332;18.034;2023-12-20T07:05:46;99013.28;;;1.64;64.95
51715;BME280;39115;59.332;18.034;2023-12-20T07:08:07;99023.69;;;1.66;65.07
51715;BME280;39115;59.332;18.034;2023-12-20T07:10:27;99017.56;;;1.65;64.92
51715;BME280;39115;59.332;18.034;2023-12-20T07:12:48;99019.38;;;1.65;64.66
51715;BME280;39115;59.332;18.034;2023-12-20T07:15:09;99023.78;;;1.64;64.80
51715;BME280;39115;59.332;18.034;2023-12-20T07:17:29;99016.75;;;1.65;64.87
51715;BME280;39115;59.332;18.034;2023-12-20T07:19:50;99017.56;;;1.65;64.82
51715;BME280;39115;59.332;18.034;2023-12-20T07:22:10;99014.94;;;1.65;64.90
51715;BME280;39115;59.332;18.034;2023-12-20T07:24:31;99015.81;;;1.66;65.09
51715;BME280;39115;59.332;18.034;2023-12-20T07:26:52;99005.31;;;1.66;64.97
51715;BME280;39115;59.332;18.034;2023-12-20T07:29:12;99002.69;;;1.66;64.92
51715;BME280;39115;59.332;18.034;2023-12-20T07:31:33;99001.00;;;1.65;64.90
51715;BME280;39115;59.332;18.034;2023-12-20T07:33:53;99003.50;;;1.66;64.78
51715;BME280;39115;59.332;18.034;2023-12-20T07:36:14;98996.59;;;1.65;64.86
51715;BME280;39115;59.332;18.034;2023-12-20T07:38:34;98998.25;;;1.66;64.99
51715;BME280;39115;59.332;18.034;2023-12-20T07:40:55;98996.59;;;1.65;64.71
51715;BME280;39115;59.332;18.034;2023-12-20T07:43:16;99000.88;;;1.66;64.79
51715;BME280;39115;59.332;18.034;2023-12-20T07:45:36;98997.44;;;1.66;64.76
51715;BME280;39115;59.332;18.034;2023-12-20T07:47:58;98997.44;;;1.66;64.87
51715;BME280;39115;59.332;18.034;2023-12-20T07:50:18;98983.38;;;1.67;64.74
51715;BME280;39115;59.332;18.034;2023-12-20T07:52:39;98977.28;;;1.66;64.97
51715;BME280;39115;59.332;18.034;2023-12-20T07:54:59;98970.25;;;1.67;64.94
51715;BME280;39115;59.332;18.034;2023-12-20T07:57:20;98959.75;;;1.67;64.97
51715;BME280;39115;59.332;18.034;2023-12-20T07:59:41;98955.34;;;1.67;64.84
51715;BME280;39115;59.332;18.034;2023-12-20T08:02:01;98952.84;;;1.66;64.87
51715;BME280;39115;59.332;18.034;2023-12-20T08:04:22;98963.22;;;1.67;64.94
51715;BME280;39115;59.332;18.034;2023-12-20T08:06:42;98968.47;;;1.67;65.06
51715;BME280;39115;59.332;18.034;2023-12-20T08:09:03;98959.75;;;1.67;64.84
51715;BME280;39115;59.332;18.034;2023-12-20T08:11:24;98968.31;;;1.69;64.74
51715;BME280;39115;59.332;18.034;2023-12-20T08:13:44;98966.66;;;1.68;64.82
51715;BME280;39115;59.332;18.034;2023-12-20T08:16:05;98966.66;;;1.68;65.20
51715;BME280;39115;59.332;18.034;2023-12-20T08:18:26;98966.66;;;1.68;64.86
51715;BME280;39115;59.332;18.034;2023-12-20T08:20:46;98960.59;;;1.67;64.94
51715;BME280;39115;59.332;18.034;2023-12-20T08:23:08;98961.41;;;1.68;65.19
51715;BME280;39115;59.332;18.034;2023-12-20T08:25:29;98957.97;;;1.67;64.93
51715;BME280;39115;59.332;18.034;2023-12-20T08:27:49;98957.16;;;1.67;65.15
51715;BME280;39115;59.332;18.034;2023-12-20T08:30:10;98950.81;;;1.69;64.80
51715;BME280;39115;59.332;18.034;2023-12-20T08:32:30;98951.75;;;1.68;64.73
51715;BME280;39115;59.332;18.034;2023-12-20T08:34:52;98943.91;;;1.68;64.80
51715;BME280;39115;59.332;18.034;2023-12-20T08:37:12;98946.53;;;1.68;64.62
51715;BME280;39115;59.332;18.034;2023-12-20T08:39:33;98947.34;;;1.69;65.06
51715;BME280;39115;59.332;18.034;2023-12-20T08:41:54;98939.47;;;1.69;64.99
51715;BME280;39115;59.332;18.034;2023-12-20T08:44:14;98940.31;;;1.69;64.77
51715;BME280;39115;59.332;18.034;2023-12-20T08:46:35;98936.03;;;1.68;64.97
51715;BME280;39115;59.332;18.034;2023-12-20T08:48:56;98944.72;;;1.69;65.02
51715;BME280;39115;59.332;18.034;2023-12-20T08:51:16;98931.59;;;1.69;65.19
51715;BME280;39115;59.332;18.034;2023-12-20T08:53:37;98941.13;;;1.70;64.99
51715;BME280;39115;59.332;18.034;2023-12-20T08:55:58;98935.91;;;1.70;65.19
51715;BME280;39115;59.332;18.034;2023-12-20T08:58:21;98937.69;;;1.69;64.89
51715;BME280;39115;59.332;18.034;2023-12-20T09:00:42;98936.75;;;1.70;64.91
51715;BME280;39115;59.332;18.034;2023-12-20T09:03:02;98934.94;;;1.71;64.99
51715;BME280;39115;59.332;18.034;2023-12-20T09:05:23;98921.00;;;1.70;64.84
51715;BME280;39115;59.332;18.034;2023-12-20T09:07:43;98923.63;;;1.70;64.91
51715;BME280;39115;59.332;18.034;2023-12-20T09:10:04;98927.06;;;1.71;64.92
51715;BME280;39115;59.332;18.034;2023-12-20T09:12:25;98930.50;;;1.71;65.05
51715;BME280;39115;59.332;18.034;2023-12-20T09:14:46;98921.81;;;1.71;64.65
51715;BME280;39115;59.332;18.034;2023-12-20T09:17:07;98916.56;;;1.71;65.16
51715;BME280;39115;59.332;18.034;2023-12-20T09:19:29;98919.19;;;1.71;64.80
51715;BME280;39115;59.332;18.034;2023-12-20T09:21:50;98917.41;;;1.71;64.89
51715;BME280;39115;59.332;18.034;2023-12-20T09:24:10;98916.56;;;1.71;64.84
51715;BME280;39115;59.332;18.034;2023-12-20T09:26:31;98920.03;;;1.71;64.89
51715;BME280;39115;59.332;18.034;2023-12-20T09:28:51;98918.25;;;1.72;64.71
51715;BME280;39115;59.332;18.034;2023-12-20T09:31:12;98916.44;;;1.72;65.16
51715;BME280;39115;59.332;18.034;2023-12-20T09:33:33;98905.94;;;1.72;64.83
51715;BME280;39115;59.332;18.034;2023-12-20T09:35:54;98905.00;;;1.73;64.96
51715;BME280;39115;59.332;18.034;2023-12-20T09:38:14;98901.56;;;1.73;64.97
51715;BME280;39115;59.332;18.034;2023-12-20T09:40:36;98896.31;;;1.73;64.70
51715;BME280;39115;59.332;18.034;2023-12-20T09:43:04;98889.25;;;1.73;65.14
51715;BME280;39115;59.332;18.034;2023-12-20T09:45:30;98876.16;;;1.73;64.98
51715;BME280;39115;59.332;18.034;2023-12-20T09:47:53;98876.16;;;1.73;64.87
51715;BME280;39115;59.332;18.034;2023-12-20T09:50:14;98864.81;;;1.73;64.99
51715;BME280;39115;59.332;18.034;2023-12-20T09:52:36;98864.69;;;1.74;65.14
51715;BME280;39115;59.332;18.034;2023-12-20T09:54:59;98855.16;;;1.73;64.87
51715;BME280;39115;59.332;18.034;2023-12-20T09:57:22;98854.34;;;1.73;64.90
51715;BME280;39115;59.332;18.034;2023-12-20T09:59:42;98848.13;;;1.74;64.65
51715;BME280;39115;59.332;18.034;2023-12-20T10:02:07;98843.72;;;1.74;65.05
51715;BME280;39115;59.332;18.034;2023-12-20T10:04:32;98842.03;;;1.73;64.87
51715;BME280;39115;59.332;18.034;2023-12-20T10:06:52;98839.41;;;1.73;64.77
51715;BME280;39115;59.332;18.034;2023-12-20T10:09:13;98831.41;;;1.75;64.77
51715;BME280;39115;59.332;18.034;2023-12-20T10:11:38;98824.53;;;1.74;64.78
51715;BME280;39115;59.332;18.034;2023-12-20T10:13:59;98813.91;;;1.76;64.71
51715;BME280;39115;59.332;18.034;2023-12-20T10:16:24;98813.91;;;1.76;65.06
51715;BME280;39115;59.332;18.034;2023-12-20T10:18:45;98808.66;;;1.76;64.68
51715;BME280;39115;59.332;18.034;2023-12-20T10:21:07;98807.81;;;1.75;64.98
51715;BME280;39115;59.332;18.034;2023-12-20T10:23:32;98797.19;;;1.77;64.86
51715;BME280;39115;59.332;18.034;2023-12-20T10:26:01;98796.34;;;1.76;64.84
51715;BME280;39115;59.332;18.034;2023-12-20T10:28:22;98792.91;;;1.76;64.85
51715;BME280;39115;59.332;18.034;2023-12-20T10:30:45;98790.16;;;1.77;64.80
51715;BME280;39115;59.332;18.034;2023-12-20T10:33:09;98786.72;;;1.77;64.85
51715;BME280;39115;59.332;18.034;2023-12-20T10:35:30;98784.09;;;1.77;64.98
51715;BME280;39115;59.332;18.034;2023-12-20T10:37:55;98776.22;;;1.77;64.85
51715;BME280;39115;59.332;18.034;2023-12-20T10:40:16;98773.59;;;1.77;64.53
51715;BME280;39115;59.332;18.034;2023-12-20T10:42:39;98773.44;;;1.78;64.90
51715;BME280;39115;59.332;18.034;2023-12-20T10:45:01;98764.75;;;1.78;64.82
51715;BME280;39115;59.332;18.034;2023-12-20T10:47:22;98759.50;;;1.78;64.87
51715;BME280;39115;59.332;18.034;2023-12-20T10:49:45;98757.72;;;1.78;65.07
51715;BME280;39115;59.332;18.034;2023-12-20T10:52:07;98750.69;;;1.79;64.81
51715;BME280;39115;59.332;18.034;2023-12-20T10:54:29;98748.06;;;1.79;64.82
51715;BME280;39115;59.332;18.034;2023-12-20T10:56:52;98743.63;;;1.79;64.85
51715;BME280;39115;59.332;18.034;2023-12-20T10:59:14;98750.56;;;1.80;64.98
51715;BME280;39115;59.332;18.034;2023-12-20T11:01:40;98733.97;;;1.80;64.72
51715;BME280;39115;59.332;18.034;2023-12-20T11:04:06;98734.81;;;1.80;64.89
51715;BME280;39115;59.332;18.034;2023-12-20T11:06:56;98732.06;;;1.82;64.80
51715;BME280;39115;59.332;18.034;2023-12-20T11:09:31;98720.84;;;1.80;64.76
51715;BME280;39115;59.332;18.034;2023-12-20T11:12:15;98717.25;;;1.81;64.75
51715;BME280;39115;59.332;18.034;2023-12-20T11:14:47;98712.88;;;1.81;64.96
51715;BME280;39115;59.332;18.034;2023-12-20T11:17:10;98703.31;;;1.80;64.86
51715;BME280;39115;59.332;18.034;2023-12-20T11:22:26;98698.91;;;1.81;64.95
51715;BME280;39115;59.332;18.034;2023-12-20T11:24:49;98701.41;;;1.82;65.00
51715;BME280;39115;59.332;18.034;2023-12-20T11:27:10;98691.88;;;1.81;64.81
51715;BME280;39115;59.332;18.034;2023-12-20T11:29:34;98693.53;;;1.82;64.87
51715;BME280;39115;59.332;18.034;2023-12-20T11:31:55;98683.06;;;1.82;64.71
51715;BME280;39115;59.332;18.034;2023-12-20T11:34:17;98683.06;;;1.82;65.03
51715;BME280;39115;59.332;18.034;2023-12-20T11:36:39;98681.25;;;1.83;65.17
51715;BME280;39115;59.332;18.034;2023-12-20T11:38:59;98684.69;;;1.83;64.72
51715;BME280;39115;59.332;18.034;2023-12-20T11:41:23;98680.28;;;1.84;64.85
51715;BME280;39115;59.332;18.034;2023-12-20T11:43:44;98665.38;;;1.84;64.62
51715;BME280;39115;59.332;18.034;2023-12-20T11:46:09;98669.66;;;1.85;64.82
51715;BME280;39115;59.332;18.034;2023-12-20T11:48:30;98659.16;;;1.85;64.80
51715;BME280;39115;59.332;18.034;2023-12-20T11:50:51;98656.53;;;1.85;64.89
51715;BME280;39115;59.332;18.034;2023-12-20T11:53:12;98646.88;;;1.86;64.81
51715;BME280;39115;59.332;18.034;2023-12-20T11:55:33;98646.88;;;1.86;64.70
51715;BME280;39115;59.332;18.034;2023-12-20T11:57:54;98646.88;;;1.86;64.73
51715;BME280;39115;59.332;18.034;2023-12-20T12:00:15;98646.88;;;1.86;64.85
51715;BME280;39115;59.332;18.034;2023-12-20T12:02:35;98640.78;;;1.85;64.88
51715;BME280;39115;59.332;18.034;2023-12-20T12:04:56;98642.47;;;1.86;64.70
51715;BME280;39115;59.332;18.034;2023-12-20T12:07:19;98640.66;;;1.87;64.80
51715;BME280;39115;59.332;18.034;2023-12-20T12:09:40;98643.28;;;1.87;64.62
51715;BME280;39115;59.332;18.034;2023-12-20T12:12:01;98632.78;;;1.87;64.80
51715;BME280;39115;59.332;18.034;2023-12-20T12:14:21;98630.16;;;1.87;65.11
51715;BME280;39115;59.332;18.034;2023-12-20T12:16:42;98627.44;;;1.88;64.67
51715;BME280;39115;59.332;18.034;2023-12-20T12:19:03;98629.09;;;1.89;64.87
51715;BME280;39115;59.332;18.034;2023-12-20T12:21:25;98622.19;;;1.88;64.68
51715;BME280;39115;59.332;18.034;2023-12-20T12:23:45;98623.84;;;1.89;64.85
51715;BME280;39115;59.332;18.034;2023-12-20T12:26:06;98623.84;;;1.89;64.48
51715;BME280;39115;59.332;18.034;2023-12-20T12:28:27;98613.34;;;1.89;64.76
51715;BME280;39115;59.332;18.034;2023-12-20T12:30:59;98606.28;;;1.90;64.57